Time;durP1;ratioP1;P1;durP2;ratioP2;P2;SDS_P1;SDS_P2;PMS_P1;PMS_P2;Temp;Humidity;BMP_temperature;BMP_pressure;BME280_temperature;BME280_humidity;BME280_pressure;Samples;Min_cycle;Max_cycle;Signal;HPM_P1;HPM_P2
2023/09/17 00:01:24;;;;;;;16.65;14.77;;;13.50;99.90;;;;;;5052581;28;20055;-72
2023/09/17 00:03:52;;;;;;;20.80;14.60;;;13.50;99.90;;;;;;5052522;28;20049;-72
2023/09/17 00:06:18;;;;;;;18.52;16.02;;;13.50;99.90;;;;;;5053942;28;20072;-71
2023/09/17 00:08:44;;;;;;;23.08;16.15;;;13.50;99.90;;;;;;5054245;28;20068;-72
2023/09/17 00:11:10;;;;;;;19.30;16.80;;;13.50;99.90;;;;;;5053834;28;20075;-73
2023/09/17 00:13:37;;;;;;;19.10;16.73;;;13.50;99.90;;;;;;5053840;28;20037;-73
2023/09/17 00:16:03;;;;;;;21.65;15.88;;;13.50;99.90;;;;;;5053844;28;20127;-73
2023/09/17 00:18:29;;;;;;;21.58;17.17;;;13.50;99.90;;;;;;5053181;28;20049;-73
2023/09/17 00:20:55;;;;;;;19.17;15.32;;;13.50;99.90;;;;;;5053834;28;20036;-73
2023/09/17 00:23:20;;;;;;;17.40;15.20;;;13.40;99.90;;;;;;5052788;28;20044;-74
2023/09/17 00:25:46;;;;;;;17.90;15.80;;;13.50;99.90;;;;;;5053114;28;20044;-74
2023/09/17 00:28:12;;;;;;;19.15;15.43;;;13.40;99.90;;;;;;5053756;28;20044;-71
2023/09/17 00:30:37;;;;;;;18.27;14.65;;;13.40;99.90;;;;;;5053442;28;20416;-72
2023/09/17 00:33:03;;;;;;;16.75;13.63;;;13.40;99.90;;;;;;5053260;28;20496;-72
2023/09/17 00:35:29;;;;;;;16.48;14.52;;;13.30;99.90;;;;;;5051667;28;20060;-74
2023/09/17 00:37:54;;;;;;;19.35;15.02;;;13.30;99.90;;;;;;5053441;28;20079;-74
2023/09/17 00:40:28;;;;;;;16.38;13.90;;;13.30;99.90;;;;;;5053227;28;20480;-72
2023/09/17 00:42:54;;;;;;;16.27;14.57;;;13.30;99.90;;;;;;5053510;28;20409;-72
2023/09/17 00:45:19;;;;;;;15.43;12.70;;;13.30;99.90;;;;;;5053110;28;20041;-72
2023/09/17 00:47:45;;;;;;;15.35;12.48;;;13.30;99.90;;;;;;5053259;28;20037;-72
2023/09/17 00:50:11;;;;;;;18.10;14.32;;;13.40;99.90;;;;;;5052682;28;20140;-73
2023/09/17 00:52:38;;;;;;;16.13;13.55;;;13.40;99.90;;;;;;5052909;28;20254;-74
2023/09/17 00:55:05;;;;;;;18.42;15.40;;;13.40;99.90;;;;;;5052849;28;20037;-72
2023/09/17 00:57:31;;;;;;;19.85;16.00;;;13.50;99.90;;;;;;5053418;28;20048;-73
2023/09/17 00:59:58;;;;;;;17.73;14.60;;;13.50;99.90;;;;;;5051661;28;20056;-72
2023/09/17 01:02:26;;;;;;;16.33;14.30;;;13.50;99.90;;;;;;5052987;28;20095;-72
2023/09/17 01:04:53;;;;;;;18.52;15.23;;;13.60;99.90;;;;;;5052279;28;20136;-73
2023/09/17 01:07:19;;;;;;;17.20;15.30;;;13.60;99.90;;;;;;5051426;28;20094;-72
2023/09/17 01:09:45;;;;;;;18.65;16.58;;;13.70;99.90;;;;;;5051908;28;20041;-74
2023/09/17 01:12:12;;;;;;;23.05;18.70;;;13.70;99.90;;;;;;5052519;28;20408;-73
2023/09/17 01:14:38;;;;;;;21.50;16.48;;;13.70;99.90;;;;;;5052599;28;20045;-73
2023/09/17 01:17:08;;;;;;;19.33;17.15;;;13.70;99.90;;;;;;5052442;28;20052;-73
2023/09/17 01:19:34;;;;;;;23.58;17.83;;;13.80;99.90;;;;;;5051883;28;20545;-74
2023/09/17 01:22:06;;;;;;;23.90;18.83;;;13.80;99.90;;;;;;5045593;28;20041;-75
2023/09/17 01:24:54;;;;;;;21.58;18.42;;;13.80;99.90;;;;;;5050918;28;20049;-74
2023/09/17 01:27:20;;;;;;;21.55;19.20;;;13.80;99.90;;;;;;5047434;28;20102;-72
2023/09/17 01:29:46;;;;;;;23.08;19.75;;;13.80;99.90;;;;;;5051925;28;20488;-73
2023/09/17 01:32:13;;;;;;;22.52;19.23;;;14.00;99.90;;;;;;5052424;28;20049;-73
2023/09/17 01:34:43;;;;;;;23.75;19.98;;;13.90;99.90;;;;;;5052133;28;20594;-72
2023/09/17 01:37:15;;;;;;;22.55;18.40;;;13.90;99.90;;;;;;5056718;28;20068;-72
2023/09/17 01:39:51;;;;;;;24.17;18.48;;;13.90;99.90;;;;;;5058546;28;20044;-73
2023/09/17 01:42:19;;;;;;;28.08;22.10;;;14.00;99.90;;;;;;5052062;28;20124;-74
2023/09/17 01:44:45;;;;;;;29.25;21.65;;;14.00;99.90;;;;;;5052116;28;20093;-74
2023/09/17 01:47:11;;;;;;;29.85;24.30;;;14.10;99.90;;;;;;5051826;28;20052;-72
2023/09/17 01:49:38;;;;;;;26.60;23.63;;;14.10;99.90;;;;;;5051794;28;20496;-72
2023/09/17 01:52:05;;;;;;;26.35;22.80;;;14.10;99.90;;;;;;5050019;28;20041;-74
2023/09/17 01:54:30;;;;;;;24.25;20.95;;;14.60;99.90;;;;;;5054483;28;20070;-74
2023/09/17 01:56:56;;;;;;;21.40;18.95;;;14.10;99.90;;;;;;5055954;28;20042;-72
2023/09/17 01:59:22;;;;;;;22.35;18.25;;;14.10;99.90;;;;;;5050623;28;20438;-72
2023/09/17 02:01:48;;;;;;;27.77;20.55;;;14.10;99.90;;;;;;5052065;28;20114;-73
2023/09/17 02:04:13;;;;;;;24.08;19.17;;;14.10;99.90;;;;;;5051927;28;20064;-74
2023/09/17 02:06:39;;;;;;;20.08;17.85;;;14.10;99.90;;;;;;5051541;28;20036;-72
2023/09/17 02:09:05;;;;;;;24.13;18.88;;;14.10;99.90;;;;;;5052012;28;20041;-75
2023/09/17 02:11:31;;;;;;;21.05;17.95;;;14.10;99.90;;;;;;5050742;28;20490;-73
2023/09/17 02:13:57;;;;;;;21.88;19.55;;;14.10;99.90;;;;;;5052162;28;20052;-73
2023/09/17 02:16:23;;;;;;;21.15;18.08;;;14.10;99.90;;;;;;5051581;28;20056;-72
2023/09/17 02:18:51;;;;;;;21.23;18.25;;;14.10;99.90;;;;;;5051654;28;20041;-74
2023/09/17 02:21:17;;;;;;;23.67;18.83;;;14.10;99.90;;;;;;5051239;28;20060;-72
2023/09/17 02:23:44;;;;;;;22.80;18.52;;;14.10;99.90;;;;;;5050638;28;20040;-74
2023/09/17 02:26:10;;;;;;;21.20;17.95;;;14.10;99.90;;;;;;5051589;28;20041;-72
2023/09/17 02:28:36;;;;;;;24.60;19.42;;;14.10;99.90;;;;;;5051422;28;20080;-72
2023/09/17 02:31:02;;;;;;;25.00;21.73;;;14.10;99.90;;;;;;5051599;28;20140;-72
2023/09/17 02:33:29;;;;;;;25.40;19.15;;;14.10;99.90;;;;;;5051520;28;20052;-72
2023/09/17 02:35:55;;;;;;;24.52;19.35;;;14.10;99.90;;;;;;5050927;28;20392;-72
2023/09/17 02:38:21;;;;;;;25.95;19.90;;;14.20;99.90;;;;;;5050719;28;20041;-72
2023/09/17 02:40:46;;;;;;;26.55;20.88;;;14.20;99.90;;;;;;5051372;28;20048;-74
2023/09/17 02:43:13;;;;;;;25.15;20.55;;;14.20;99.90;;;;;;5051342;28;20130;-72
2023/09/17 02:45:39;;;;;;;22.95;20.52;;;14.20;99.90;;;;;;5051045;28;20056;-74
2023/09/17 02:48:05;;;;;;;27.85;22.65;;;14.20;99.90;;;;;;5050619;28;20041;-73
2023/09/17 02:50:31;;;;;;;24.63;20.73;;;14.30;99.90;;;;;;5050954;28;20119;-72
2023/09/17 02:52:56;;;;;;;23.60;21.05;;;14.30;99.90;;;;;;5055943;28;20490;-72
2023/09/17 02:55:22;;;;;;;23.92;20.50;;;14.30;99.90;;;;;;5049176;28;20567;-73
2023/09/17 02:57:49;;;;;;;25.75;21.17;;;14.30;99.90;;;;;;5050795;28;20131;-72
2023/09/17 03:00:17;;;;;;;26.50;22.20;;;14.30;99.90;;;;;;5049363;28;20048;-72
2023/09/17 03:02:47;;;;;;;29.83;25.83;;;14.40;99.90;;;;;;5050303;28;20049;-73
2023/09/17 03:05:14;;;;;;;26.65;22.55;;;14.40;99.90;;;;;;5050935;28;20084;-71
2023/09/17 03:07:40;;;;;;;24.48;21.75;;;14.40;99.90;;;;;;5050790;28;20048;-72
2023/09/17 03:10:10;;;;;;;26.42;21.60;;;14.50;99.90;;;;;;5050266;28;20041;-70
2023/09/17 03:12:38;;;;;;;28.05;23.00;;;14.50;99.90;;;;;;5050055;28;20088;-73
2023/09/17 03:15:05;;;;;;;25.50;21.60;;;14.50;99.90;;;;;;5048677;28;20505;-72
2023/09/17 03:17:32;;;;;;;29.63;25.45;;;14.60;99.90;;;;;;5048563;28;20051;-75
2023/09/17 03:19:58;;;;;;;34.75;29.40;;;14.70;99.90;;;;;;5050386;28;20186;-74
2023/09/17 03:22:23;;;;;;;28.52;23.77;;;14.80;99.90;;;;;;5050330;28;20049;-73
2023/09/17 03:24:50;;;;;;;32.08;26.80;;;14.80;99.90;;;;;;5049645;28;20559;-71
2023/09/17 03:27:16;;;;;;;31.80;26.75;;;14.90;99.90;;;;;;5048936;28;20055;-73
2023/09/17 03:29:41;;;;;;;35.90;29.65;;;14.90;99.90;;;;;;5057674;28;20049;-72
2023/09/17 03:32:07;;;;;;;30.30;26.60;;;15.00;99.90;;;;;;5050341;28;20080;-72
2023/09/17 03:34:33;;;;;;;34.28;28.90;;;15.10;99.90;;;;;;5049971;28;20091;-72
2023/09/17 03:36:59;;;;;;;39.30;31.92;;;15.10;99.90;;;;;;5049987;28;20099;-72
2023/09/17 03:39:24;;;;;;;36.20;30.38;;;15.20;99.90;;;;;;5050205;28;20541;-72
2023/09/17 03:41:50;;;;;;;37.47;28.20;;;15.20;99.90;;;;;;5048257;28;20048;-73
2023/09/17 03:44:16;;;;;;;32.45;27.80;;;15.20;99.90;;;;;;5049697;28;20480;-74
2023/09/17 03:46:41;;;;;;;30.55;25.45;;;15.30;99.90;;;;;;5049871;28;20037;-75
2023/09/17 03:49:08;;;;;;;27.10;24.08;;;15.30;99.90;;;;;;5049874;28;20496;-72
2023/09/17 03:51:34;;;;;;;28.50;25.40;;;15.30;99.90;;;;;;5050670;28;20119;-75
2023/09/17 03:54:01;;;;;;;35.22;26.13;;;15.40;99.90;;;;;;5049695;28;20141;-75
2023/09/17 03:56:27;;;;;;;37.10;26.50;;;15.40;99.90;;;;;;5049538;28;20392;-75
2023/09/17 03:58:53;;;;;;;31.55;25.52;;;15.40;99.90;;;;;;5049418;28;20063;-76
2023/09/17 04:01:20;;;;;;;28.40;24.13;;;15.40;99.90;;;;;;5049855;28;20037;-75
2023/09/17 04:03:45;;;;;;;29.85;24.55;;;15.40;99.90;;;;;;5049625;28;20056;-75
2023/09/17 04:06:11;;;;;;;29.60;25.98;;;15.40;99.90;;;;;;5051675;28;20041;-73
2023/09/17 04:08:37;;;;;;;37.13;28.55;;;15.40;99.90;;;;;;5049657;28;20415;-74
2023/09/17 04:11:04;;;;;;;31.10;24.88;;;15.40;99.90;;;;;;5049865;28;20037;-75
2023/09/17 04:13:30;;;;;;;28.23;24.70;;;15.40;99.90;;;;;;5048172;28;20056;-74
2023/09/17 04:15:56;;;;;;;29.02;23.95;;;15.40;99.90;;;;;;5049564;28;20053;-76
2023/09/17 04:18:21;;;;;;;28.73;24.27;;;15.40;99.90;;;;;;5051598;28;20098;-73
2023/09/17 04:20:50;;;;;;;25.55;22.63;;;15.40;99.90;;;;;;5044390;28;20098;-76
2023/09/17 04:23:16;;;;;;;29.20;24.73;;;15.40;99.90;;;;;;5049425;28;20102;-75
2023/09/17 04:25:41;;;;;;;26.08;23.25;;;15.40;99.90;;;;;;5058329;28;20045;-74
2023/09/17 04:28:08;;;;;;;28.08;24.45;;;15.40;99.90;;;;;;5049247;28;20124;-74
2023/09/17 04:30:33;;;;;;;26.25;23.45;;;15.50;99.90;;;;;;5046529;28;20048;-73
2023/09/17 04:33:01;;;;;;;29.45;23.13;;;15.40;99.90;;;;;;5052947;28;20063;-76
2023/09/17 04:35:27;;;;;;;25.00;22.15;;;15.40;99.90;;;;;;5049246;28;20148;-75
2023/09/17 04:37:52;;;;;;;26.27;23.45;;;15.40;99.90;;;;;;5049467;28;20504;-73
2023/09/17 04:40:18;;;;;;;27.25;23.50;;;15.40;99.90;;;;;;5031621;28;20127;-75
2023/09/17 04:42:46;;;;;;;26.48;22.85;;;15.40;99.90;;;;;;5053088;28;20477;-74
2023/09/17 04:45:12;;;;;;;28.77;24.10;;;15.40;99.90;;;;;;5046568;28;20087;-73
2023/09/17 04:47:39;;;;;;;29.33;23.92;;;15.50;99.90;;;;;;5053327;28;20439;-72
2023/09/17 04:50:08;;;;;;;24.65;22.05;;;15.40;99.90;;;;;;5052935;28;20511;-74
2023/09/17 04:52:35;;;;;;;30.23;26.45;;;15.50;99.90;;;;;;5054498;28;20116;-75
2023/09/17 04:55:01;;;;;;;34.05;26.27;;;15.50;99.90;;;;;;5055434;28;20037;-74
2023/09/17 04:57:26;;;;;;;30.70;24.90;;;15.50;99.90;;;;;;5053040;28;20052;-74
2023/09/17 04:59:52;;;;;;;32.63;26.10;;;15.50;99.90;;;;;;5051407;28;20487;-73
2023/09/17 05:02:17;;;;;;;36.42;26.02;;;15.60;99.90;;;;;;5057878;28;20045;-75
2023/09/17 05:04:44;;;;;;;31.40;25.00;;;15.60;99.90;;;;;;5053030;28;20107;-74
2023/09/17 05:07:10;;;;;;;33.05;26.30;;;15.60;99.90;;;;;;5052375;28;20067;-73
2023/09/17 05:09:37;;;;;;;31.90;25.88;;;15.60;99.90;;;;;;5050483;28;20480;-73
2023/09/17 05:12:04;;;;;;;36.03;28.67;;;15.60;99.90;;;;;;5052943;28;20397;-75
2023/09/17 05:14:29;;;;;;;32.10;25.77;;;15.70;99.90;;;;;;5050827;28;20045;-74
2023/09/17 05:16:55;;;;;;;37.17;28.50;;;15.70;99.90;;;;;;5052690;28;20064;-75
2023/09/17 05:19:21;;;;;;;33.38;27.30;;;15.80;99.90;;;;;;5059000;28;20182;-76
2023/09/17 05:21:46;;;;;;;38.28;29.83;;;15.70;99.90;;;;;;5050907;28;20198;-75
2023/09/17 05:24:13;;;;;;;33.55;28.25;;;15.80;99.90;;;;;;5052390;28;20107;-75
2023/09/17 05:26:39;;;;;;;32.55;26.80;;;15.90;99.90;;;;;;5051161;28;20084;-75
2023/09/17 05:29:04;;;;;;;35.25;28.45;;;15.80;99.90;;;;;;5054239;28;20130;-74
2023/09/17 05:31:30;;;;;;;34.40;29.05;;;15.90;99.90;;;;;;5055955;28;20499;-76
2023/09/17 05:33:57;;;;;;;32.25;27.00;;;15.90;99.90;;;;;;5050897;28;20075;-76
2023/09/17 05:36:23;;;;;;;32.55;28.17;;;15.90;99.90;;;;;;5053673;28;20059;-76
2023/09/17 05:38:49;;;;;;;35.70;27.90;;;15.90;99.90;;;;;;5052924;28;20082;-76
2023/09/17 05:41:15;;;;;;;36.53;28.73;;;15.90;99.90;;;;;;5052288;28;20049;-75
2023/09/17 05:43:41;;;;;;;33.85;29.77;;;15.90;99.90;;;;;;5052408;28;20045;-74
2023/09/17 05:46:06;;;;;;;43.08;30.08;;;16.00;99.90;;;;;;5050261;28;20060;-72
2023/09/17 05:48:32;;;;;;;41.13;33.35;;;16.00;99.90;;;;;;5052346;28;20443;-73
2023/09/17 05:50:57;;;;;;;33.85;27.67;;;16.00;99.90;;;;;;5051568;28;20049;-72
2023/09/17 05:53:23;;;;;;;32.50;28.05;;;16.00;99.90;;;;;;5051786;28;20040;-72
2023/09/17 05:55:49;;;;;;;40.03;32.10;;;16.10;99.90;;;;;;5051860;28;20403;-74
2023/09/17 05:58:15;;;;;;;41.22;31.95;;;16.10;99.90;;;;;;5050676;28;20052;-72
2023/09/17 06:00:41;;;;;;;37.75;30.88;;;16.20;99.90;;;;;;5051288;28;20045;-73
2023/09/17 06:03:06;;;;;;;45.70;33.90;;;16.20;99.90;;;;;;5050158;28;20043;-71
2023/09/17 06:05:32;;;;;;;50.05;34.08;;;16.20;99.90;;;;;;5051518;28;20055;-74
2023/09/17 06:07:58;;;;;;;35.03;31.17;;;16.30;99.90;;;;;;5051453;28;20068;-73
2023/09/17 06:10:23;;;;;;;40.42;34.20;;;16.30;99.90;;;;;;5049985;28;20048;-73
2023/09/17 06:12:49;;;;;;;38.17;31.58;;;16.30;99.90;;;;;;5051770;28;20103;-73
2023/09/17 06:15:15;;;;;;;40.38;31.92;;;16.40;99.90;;;;;;5051747;28;20049;-72
2023/09/17 06:17:41;;;;;;;40.53;33.33;;;16.40;99.90;;;;;;5051019;28;20057;-71
2023/09/17 06:20:08;;;;;;;45.90;33.03;;;16.40;99.90;;;;;;5051425;28;20087;-72
2023/09/17 06:22:34;;;;;;;38.72;30.90;;;16.40;99.90;;;;;;5051634;28;20091;-73
2023/09/17 06:24:59;;;;;;;40.60;31.40;;;16.40;99.90;;;;;;5049922;28;20136;-72
2023/09/17 06:27:25;;;;;;;34.35;30.15;;;16.50;99.90;;;;;;5051184;28;20127;-72
2023/09/17 06:29:51;;;;;;;37.90;31.25;;;16.50;99.90;;;;;;5052230;28;20053;-73
2023/09/17 06:32:17;;;;;;;40.70;31.65;;;16.50;99.90;;;;;;5050867;28;20082;-71
2023/09/17 06:34:43;;;;;;;37.70;30.80;;;16.60;99.90;;;;;;5051267;28;20087;-73
2023/09/17 06:37:08;;;;;;;34.28;29.90;;;16.60;99.90;;;;;;5050935;28;20037;-72
2023/09/17 06:39:35;;;;;;;32.92;29.40;;;16.70;99.90;;;;;;5050894;28;20756;-73
2023/09/17 06:42:00;;;;;;;33.63;26.98;;;16.70;99.90;;;;;;5050730;28;20049;-73
2023/09/17 06:44:26;;;;;;;35.72;29.17;;;16.80;99.90;;;;;;5051108;28;20052;-73
2023/09/17 06:46:52;;;;;;;34.42;29.58;;;16.80;99.90;;;;;;5050990;28;20479;-73
2023/09/17 06:49:18;;;;;;;34.08;28.83;;;16.80;99.90;;;;;;5050826;28;20516;-74
2023/09/17 06:51:44;;;;;;;32.42;27.75;;;16.90;99.90;;;;;;5050749;28;20063;-73
2023/09/17 06:54:09;;;;;;;31.48;27.92;;;16.90;99.90;;;;;;5052242;28;20051;-73
2023/09/17 06:56:35;;;;;;;35.55;30.02;;;17.00;99.90;;;;;;5050706;28;20048;-73
2023/09/17 06:59:01;;;;;;;32.72;26.77;;;17.10;99.90;;;;;;5049150;28;20396;-72
2023/09/17 07:01:26;;;;;;;32.17;26.75;;;17.20;99.90;;;;;;5050295;28;20045;-72
2023/09/17 07:03:52;;;;;;;33.38;26.20;;;17.20;99.90;;;;;;5050266;28;20044;-72
2023/09/17 07:06:18;;;;;;;34.55;27.23;;;17.40;99.90;;;;;;5050473;28;20116;-74
2023/09/17 07:08:44;;;;;;;33.50;25.75;;;17.40;99.90;;;;;;5053054;28;20045;-76
2023/09/17 07:11:10;;;;;;;29.05;25.90;;;17.50;99.90;;;;;;5050187;28;20044;-73
2023/09/17 07:13:38;;;;;;;28.95;25.90;;;17.60;99.90;;;;;;5050214;28;20036;-74
2023/09/17 07:16:04;;;;;;;29.88;24.90;;;17.70;99.90;;;;;;5050030;28;20053;-72
2023/09/17 07:18:31;;;;;;;31.42;25.17;;;17.70;99.90;;;;;;5050368;28;20102;-73
2023/09/17 07:20:57;;;;;;;28.52;24.45;;;17.80;99.90;;;;;;5050064;28;20451;-73
2023/09/17 07:23:23;;;;;;;27.70;24.05;;;17.90;99.90;;;;;;5050493;28;20037;-73
2023/09/17 07:25:50;;;;;;;27.83;23.52;;;17.90;99.90;;;;;;5050506;28;20041;-74
2023/09/17 07:28:16;;;;;;;24.83;22.20;;;17.90;99.90;;;;;;5048385;28;20052;-72
2023/09/17 07:30:42;;;;;;;28.50;23.15;;;18.00;99.90;;;;;;5055444;28;20040;-72
2023/09/17 07:33:08;;;;;;;25.17;22.48;;;18.00;99.90;;;;;;5050295;28;20044;-74
2023/09/17 07:35:34;;;;;;;24.50;21.50;;;18.00;99.90;;;;;;5048865;28;20476;-72
2023/09/17 07:38:00;;;;;;;26.45;23.23;;;18.10;99.90;;;;;;5050380;28;20064;-72
2023/09/17 07:40:26;;;;;;;27.65;23.15;;;18.10;99.90;;;;;;5050168;28;20523;-76
2023/09/17 07:42:52;;;;;;;30.83;21.80;;;18.10;99.90;;;;;;5049719;28;20036;-74
2023/09/17 07:45:18;;;;;;;28.80;23.10;;;18.10;99.90;;;;;;5048540;28;20072;-74
2023/09/17 07:47:44;;;;;;;26.35;20.77;;;18.10;99.90;;;;;;5050324;28;20064;-73
2023/09/17 07:50:10;;;;;;;24.58;21.63;;;18.10;99.90;;;;;;5062239;28;20084;-72
2023/09/17 07:52:35;;;;;;;25.90;21.55;;;18.20;99.90;;;;;;5050220;28;20040;-71
2023/09/17 07:55:01;;;;;;;23.85;21.05;;;18.10;99.90;;;;;;5049929;28;20137;-72
2023/09/17 07:57:27;;;;;;;26.80;22.92;;;18.20;99.90;;;;;;5055943;28;20085;-72
2023/09/17 07:59:53;;;;;;;30.70;23.00;;;18.10;99.90;;;;;;5049952;28;20103;-74
2023/09/17 08:02:19;;;;;;;30.48;23.65;;;18.10;99.90;;;;;;5049716;28;20044;-76
2023/09/17 08:04:44;;;;;;;26.17;23.05;;;18.20;99.90;;;;;;5050065;28;20500;-72
2023/09/17 08:07:11;;;;;;;29.27;22.73;;;18.10;99.90;;;;;;5049255;28;20095;-74
2023/09/17 08:09:38;;;;;;;30.08;23.00;;;18.10;99.90;;;;;;5042765;28;20119;-75
2023/09/17 08:12:04;;;;;;;25.05;22.42;;;18.20;99.90;;;;;;5049684;28;20533;-74
2023/09/17 08:14:30;;;;;;;24.38;21.13;;;18.10;99.90;;;;;;5048388;28;20051;-73
2023/09/17 08:16:56;;;;;;;23.45;20.95;;;18.20;99.90;;;;;;5049969;28;20049;-74
2023/09/17 08:19:21;;;;;;;24.65;21.45;;;18.10;99.90;;;;;;5048418;28;20053;-71
2023/09/17 08:21:48;;;;;;;23.40;20.73;;;18.20;99.90;;;;;;5052988;28;20052;-72
2023/09/17 08:24:15;;;;;;;26.20;21.10;;;18.20;99.90;;;;;;5053754;28;20392;-76
2023/09/17 08:26:41;;;;;;;24.30;21.30;;;18.10;99.90;;;;;;5053737;28;20041;-73
2023/09/17 08:29:06;;;;;;;26.17;21.98;;;18.10;99.90;;;;;;5053502;28;20041;-72
2023/09/17 08:31:32;;;;;;;28.00;21.60;;;18.20;99.90;;;;;;5052428;28;20139;-71
2023/09/17 08:34:00;;;;;;;26.27;20.63;;;18.20;99.90;;;;;;5051593;28;20096;-76
2023/09/17 08:36:26;;;;;;;24.75;20.25;;;18.20;99.90;;;;;;5053593;28;20048;-70
2023/09/17 08:38:53;;;;;;;28.35;21.00;;;18.20;99.90;;;;;;5053217;28;20048;-76
2023/09/17 08:41:19;;;;;;;22.85;20.45;;;18.20;99.90;;;;;;5051375;28;20044;-72
2023/09/17 08:43:45;;;;;;;22.55;20.15;;;18.20;99.90;;;;;;5053582;28;20053;-73
2023/09/17 08:46:12;;;;;;;27.52;21.42;;;18.30;99.90;;;;;;5052086;28;20049;-73
2023/09/17 08:48:38;;;;;;;23.73;20.23;;;18.30;99.90;;;;;;5051879;28;20084;-77
2023/09/17 08:51:04;;;;;;;25.15;21.38;;;18.30;99.90;;;;;;5053149;28;20084;-74
2023/09/17 08:53:39;;;;;;;24.13;20.05;;;18.30;99.90;;;;;;5053168;28;20440;-72
2023/09/17 08:56:06;;;;;;;26.10;20.75;;;18.30;99.90;;;;;;5051698;28;20080;-75
2023/09/17 08:58:39;;;;;;;26.00;20.90;;;18.30;99.90;;;;;;5053191;28;20041;-76
2023/09/17 09:01:10;;;;;;;27.45;22.48;;;18.30;99.90;;;;;;5051521;28;20045;-73
2023/09/17 09:03:37;;;;;;;26.27;21.58;;;18.30;99.90;;;;;;5051342;28;20049;-73
2023/09/17 09:06:04;;;;;;;25.45;22.10;;;18.20;99.90;;;;;;5052766;28;20048;-73
2023/09/17 09:08:31;;;;;;;24.42;21.48;;;18.30;99.90;;;;;;5052926;28;20086;-74
2023/09/17 09:10:57;;;;;;;24.20;20.83;;;18.30;99.90;;;;;;5051199;28;20174;-73
2023/09/17 09:13:23;;;;;;;24.85;20.35;;;18.30;99.90;;;;;;5053039;28;20052;-71
2023/09/17 09:15:49;;;;;;;25.45;21.08;;;18.40;99.90;;;;;;5052989;28;20044;-72
2023/09/17 09:18:15;;;;;;;23.85;21.35;;;18.40;99.90;;;;;;5052711;28;20111;-73
2023/09/17 09:20:42;;;;;;;27.83;20.67;;;18.40;99.90;;;;;;5052535;28;20076;-73
2023/09/17 09:23:08;;;;;;;23.58;20.25;;;18.40;99.90;;;;;;5052287;28;20124;-73
2023/09/17 09:25:34;;;;;;;24.65;19.75;;;18.40;99.90;;;;;;5051977;28;20510;-73
2023/09/17 09:28:04;;;;;;;21.17;18.35;;;18.40;99.90;;;;;;5052721;28;20472;-73
2023/09/17 09:30:30;;;;;;;21.38;18.38;;;18.40;99.90;;;;;;5052687;28;20052;-73
2023/09/17 09:32:56;;;;;;;24.58;19.98;;;18.40;99.90;;;;;;5052170;28;20440;-73
2023/09/17 09:35:23;;;;;;;24.33;19.67;;;18.30;99.90;;;;;;5052504;28;20048;-73
2023/09/17 09:37:51;;;;;;;23.80;19.50;;;18.20;99.90;;;;;;5051426;28;20045;-74
2023/09/17 09:40:17;;;;;;;23.45;19.88;;;18.20;99.90;;;;;;5050948;28;20045;-73
2023/09/17 09:42:43;;;;;;;25.25;20.92;;;18.20;99.90;;;;;;5052321;28;20045;-75
2023/09/17 09:45:18;;;;;;;28.20;21.20;;;18.10;99.90;;;;;;5051729;28;20170;-73
2023/09/17 09:47:50;;;;;;;27.90;21.92;;;18.10;99.90;;;;;;5052219;28;20088;-73
2023/09/17 09:50:23;;;;;;;24.65;21.55;;;18.10;99.90;;;;;;5052145;28;20407;-73
2023/09/17 09:52:49;;;;;;;24.50;21.27;;;18.10;99.90;;;;;;5051914;28;20518;-72
2023/09/17 09:55:15;;;;;;;27.45;22.17;;;18.00;99.90;;;;;;5050141;28;20045;-73
2023/09/17 09:57:45;;;;;;;28.60;22.60;;;18.10;99.90;;;;;;5052167;28;20128;-73
2023/09/17 10:00:12;;;;;;;26.02;22.13;;;18.10;99.90;;;;;;5052078;28;20044;-73
2023/09/17 10:02:38;;;;;;;26.73;21.83;;;18.10;99.90;;;;;;5054202;28;20049;-73
2023/09/17 10:05:04;;;;;;;29.38;23.25;;;18.10;99.90;;;;;;5051990;28;20037;-73
2023/09/17 10:07:31;;;;;;;26.45;22.52;;;18.10;99.90;;;;;;5051474;28;20557;-73
2023/09/17 10:09:58;;;;;;;25.15;22.52;;;18.10;99.90;;;;;;5051512;28;20503;-72
2023/09/17 10:12:23;;;;;;;28.67;22.50;;;18.10;99.90;;;;;;5066344;28;20084;-72
2023/09/17 10:14:49;;;;;;;28.13;22.23;;;18.10;99.90;;;;;;5051433;28;20061;-72
2023/09/17 10:17:17;;;;;;;29.83;23.30;;;18.20;99.90;;;;;;5051438;28;20052;-72
2023/09/17 10:19:46;;;;;;;26.67;21.73;;;18.20;99.90;;;;;;5051845;28;20094;-73
2023/09/17 10:22:13;;;;;;;25.30;21.38;;;18.20;99.90;;;;;;5063355;28;20049;-72
2023/09/17 10:24:40;;;;;;;26.17;20.85;;;18.20;99.90;;;;;;5049469;28;20061;-73
2023/09/17 10:27:06;;;;;;;25.25;21.38;;;18.20;99.90;;;;;;5050781;28;20052;-72
2023/09/17 10:29:35;;;;;;;22.73;19.65;;;18.30;99.90;;;;;;5051541;28;20049;-73
2023/09/17 10:32:03;;;;;;;24.42;21.33;;;18.30;99.90;;;;;;5048663;28;20045;-73
2023/09/17 10:34:32;;;;;;;23.75;20.17;;;18.30;99.90;;;;;;5053244;28;20097;-72
2023/09/17 10:37:00;;;;;;;22.70;18.52;;;18.40;99.90;;;;;;5050985;28;20056;-73
2023/09/17 10:39:27;;;;;;;24.73;18.50;;;18.40;99.90;;;;;;5051211;28;20044;-72
2023/09/17 10:41:54;;;;;;;22.23;18.23;;;18.40;99.90;;;;;;5050909;28;20041;-72
2023/09/17 10:44:23;;;;;;;21.58;18.60;;;18.40;99.90;;;;;;5050542;28;20041;-73
2023/09/17 10:46:50;;;;;;;25.02;18.77;;;18.50;99.90;;;;;;5050938;28;20033;-73
2023/09/17 10:49:17;;;;;;;21.35;17.73;;;18.50;99.90;;;;;;5042628;28;20511;-72
2023/09/17 10:51:45;;;;;;;20.58;17.80;;;18.60;99.90;;;;;;5050800;28;20045;-73
2023/09/17 10:54:13;;;;;;;22.63;17.98;;;18.60;99.90;;;;;;5051048;28;20041;-73
2023/09/17 10:56:42;;;;;;;24.02;19.75;;;18.60;99.90;;;;;;5051035;28;20033;-73
2023/09/17 10:59:13;;;;;;;25.13;18.20;;;18.60;99.90;;;;;;5050678;28;20080;-72
2023/09/17 11:01:41;;;;;;;21.95;19.10;;;18.60;99.90;;;;;;5051175;28;20041;-74
2023/09/17 11:04:15;;;;;;;24.45;18.83;;;18.70;99.90;;;;;;5050871;28;20072;-74
2023/09/17 11:06:43;;;;;;;;;;;18.70;99.90;;;;;;5044470;28;20033;-73
2023/09/17 11:09:09;;;;;;;24.58;19.00;;;18.70;99.90;;;;;;5050738;28;19928;-73
2023/09/17 11:11:35;;;;;;;28.40;21.10;;;18.80;99.90;;;;;;5050583;28;20551;-72
2023/09/17 11:14:05;;;;;;;25.13;21.67;;;18.90;99.90;;;;;;5049038;28;20037;-74
2023/09/17 11:16:32;;;;;;;27.33;21.33;;;18.90;99.90;;;;;;5050205;28;20065;-73
2023/09/17 11:19:19;;;;;;;24.42;20.20;;;19.00;99.90;;;;;;5050354;28;20139;-73
2023/09/17 11:21:50;;;;;;;25.38;20.35;;;19.10;99.90;;;;;;5050636;28;20044;-74
2023/09/17 11:24:19;;;;;;;24.23;20.77;;;19.10;99.90;;;;;;5050622;28;20052;-73
2023/09/17 11:26:45;;;;;;;24.95;21.70;;;19.10;99.90;;;;;;5050707;28;20044;-73
2023/09/17 11:29:11;;;;;;;23.73;20.75;;;19.20;99.90;;;;;;5049936;28;20041;-73
2023/09/17 11:31:53;;;;;;;26.08;22.88;;;19.40;99.90;;;;;;5048786;28;20121;-72
2023/09/17 11:34:20;;;;;;;26.33;23.00;;;19.50;99.90;;;;;;5050558;28;20732;-73
2023/09/17 11:36:47;;;;;;;25.05;20.50;;;19.70;99.90;;;;;;5050139;28;20589;-73
2023/09/17 11:39:17;;;;;;;30.48;20.85;;;19.80;99.90;;;;;;5050165;28;20056;-74
2023/09/17 11:41:46;;;;;;;23.42;20.55;;;19.90;99.90;;;;;;5050021;28;20049;-73
2023/09/17 11:44:12;;;;;;;20.75;18.38;;;19.90;99.90;;;;;;5041489;28;20048;-71
2023/09/17 11:46:38;;;;;;;21.27;18.17;;;19.90;99.90;;;;;;5050323;28;20041;-73
2023/09/17 11:49:08;;;;;;;22.98;19.38;;;19.90;99.90;;;;;;5050162;28;20055;-73
2023/09/17 11:51:34;;;;;;;20.38;18.27;;;19.80;99.90;;;;;;5048897;28;20040;-74
2023/09/17 11:54:02;;;;;;;21.65;18.30;;;19.80;99.90;;;;;;5048697;28;20218;-73
2023/09/17 11:56:30;;;;;;;20.60;18.40;;;19.80;99.90;;;;;;5065213;28;20037;-72
2023/09/17 11:59:06;;;;;;;31.73;19.08;;;19.80;99.90;;;;;;5049904;28;20472;-73
2023/09/17 12:01:35;;;;;;;24.00;19.38;;;19.90;99.90;;;;;;5042152;28;20041;-73
2023/09/17 12:04:07;;;;;;;22.35;18.33;;;19.90;99.90;;;;;;5048808;28;20369;-73
2023/09/17 12:06:37;;;;;;;22.50;18.83;;;19.90;99.90;;;;;;5041854;28;20179;-74
2023/09/17 12:09:10;;;;;;;23.40;18.98;;;20.00;99.90;;;;;;5049760;28;20453;-74
2023/09/17 12:11:36;;;;;;;25.87;19.73;;;20.10;99.90;;;;;;5048421;28;20547;-73
2023/09/17 12:14:06;;;;;;;22.35;19.33;;;20.20;99.90;;;;;;5049816;28;20049;-74
2023/09/17 12:16:32;;;;;;;20.23;18.08;;;20.40;99.90;;;;;;5049325;28;20040;-73
2023/09/17 12:18:58;;;;;;;22.25;19.83;;;20.50;99.90;;;;;;5048112;28;20075;-72
2023/09/17 12:21:27;;;;;;;24.98;18.80;;;20.90;99.90;;;;;;5049748;28;20049;-73
2023/09/17 12:24:05;;;;;;;21.63;18.13;;;21.20;99.90;;;;;;5043185;28;20049;-73
2023/09/17 12:26:46;;;;;;;20.00;17.20;;;21.40;99.90;;;;;;5048479;28;20071;-72